createdAt,value
2018-09-30T00:01:01.398Z,38.70
2018-09-30T00:03:29.514Z,38.60
2018-09-30T00:05:57.616Z,38.60
2018-09-30T00:08:25.787Z,38.60
2018-09-30T00:10:53.933Z,38.60
2018-09-30T00:13:22.130Z,38.60
2018-09-30T00:15:50.298Z,38.50
2018-09-30T00:18:18.418Z,38.50
2018-09-30T00:20:46.563Z,38.60
2018-09-30T00:23:14.762Z,38.60
2018-09-30T00:25:48.381Z,38.60
2018-09-30T00:28:16.517Z,38.50
2018-09-30T00:30:44.643Z,38.50
2018-09-30T00:33:12.752Z,38.60
2018-09-30T00:35:40.972Z,38.60
2018-09-30T00:38:09.189Z,38.70
2018-09-30T00:40:37.289Z,38.70
2018-09-30T00:43:05.437Z,38.70
2018-09-30T00:45:33.655Z,38.70
2018-09-30T00:48:01.763Z,38.70
2018-09-30T00:50:29.974Z,38.70
2018-09-30T00:52:58.099Z,38.70
2018-09-30T00:55:26.239Z,38.80
2018-09-30T00:57:54.374Z,38.70
2018-09-30T01:00:22.599Z,38.70
2018-09-30T01:02:50.723Z,38.70
2018-09-30T01:05:18.838Z,38.70
2018-09-30T01:07:46.966Z,39.30
2018-09-30T01:10:15.089Z,39.40
2018-09-30T01:12:43.233Z,39.30
2018-09-30T01:15:11.418Z,38.80
2018-09-30T01:17:39.549Z,38.80
2018-09-30T01:20:07.733Z,39.50
2018-09-30T01:22:35.897Z,38.90
2018-09-30T01:25:04.058Z,39.00
2018-09-30T01:27:32.150Z,39.00
2018-09-30T01:30:00.247Z,39.00
2018-09-30T01:32:28.360Z,38.90
2018-09-30T01:34:56.520Z,39.10
2018-09-30T01:37:24.686Z,39.00
2018-09-30T01:39:52.802Z,39.10
2018-09-30T01:42:20.940Z,39.00
2018-09-30T01:44:49.069Z,39.00
2018-09-30T01:47:17.210Z,39.00
2018-09-30T01:49:45.339Z,39.70
2018-09-30T01:52:24.862Z,39.10
2018-09-30T01:54:52.985Z,39.20
2018-09-30T01:57:21.722Z,39.20
2018-09-30T01:59:49.874Z,39.10
2018-09-30T02:02:18.009Z,39.10
2018-09-30T02:04:46.135Z,39.00
2018-09-30T02:07:14.279Z,39.00
2018-09-30T02:09:42.412Z,38.90
2018-09-30T02:12:10.547Z,39.00
2018-09-30T02:14:38.700Z,39.00
2018-09-30T02:17:06.815Z,39.00
2018-09-30T02:19:34.959Z,39.00
2018-09-30T02:22:03.163Z,39.00
2018-09-30T02:24:31.282Z,39.00
2018-09-30T02:26:59.406Z,39.00
2018-09-30T02:29:27.546Z,38.90
2018-09-30T02:31:55.666Z,38.90
2018-09-30T02:34:23.792Z,38.90
2018-09-30T02:36:51.947Z,38.90
2018-09-30T02:39:20.151Z,38.90
2018-09-30T02:41:48.310Z,38.90
2018-09-30T02:44:16.515Z,38.90
2018-09-30T02:46:44.640Z,38.90
2018-09-30T02:49:12.770Z,38.70
2018-09-30T02:51:40.935Z,38.90
2018-09-30T02:54:09.667Z,39.00
2018-09-30T02:56:37.794Z,39.00
2018-09-30T02:59:05.942Z,38.90
2018-09-30T03:01:34.243Z,38.80
2018-09-30T03:04:02.430Z,38.80
2018-09-30T03:06:35.992Z,38.80
2018-09-30T03:09:13.818Z,38.80
2018-09-30T03:11:42.314Z,38.80
2018-09-30T03:14:11.116Z,38.80
2018-09-30T03:16:39.617Z,38.80
2018-09-30T03:19:07.875Z,38.80
2018-09-30T03:21:36.011Z,38.80
2018-09-30T03:24:04.165Z,38.80
2018-09-30T03:26:32.597Z,38.80
2018-09-30T03:29:00.828Z,38.80
2018-09-30T03:31:29.007Z,38.70
2018-09-30T03:33:57.197Z,38.80
2018-09-30T03:36:25.328Z,38.70
2018-09-30T03:38:53.864Z,38.90
2018-09-30T03:41:21.987Z,38.70
2018-09-30T03:43:50.114Z,38.70
2018-09-30T03:46:18.359Z,38.70
2018-09-30T03:48:46.453Z,38.80
2018-09-30T03:51:14.542Z,38.80
2018-09-30T03:53:42.681Z,39.20
2018-09-30T03:56:10.791Z,38.70
2018-09-30T03:58:38.989Z,38.70
2018-09-30T04:01:07.318Z,38.80
2018-09-30T04:03:35.426Z,38.80
2018-09-30T04:06:03.535Z,38.70
2018-09-30T04:08:31.779Z,38.70
2018-09-30T04:10:59.922Z,38.70
2018-09-30T04:13:28.058Z,38.70
2018-09-30T04:15:56.309Z,38.70
2018-09-30T04:18:24.469Z,38.70
2018-09-30T04:20:52.735Z,38.70
2018-09-30T04:23:20.883Z,38.70
2018-09-30T04:25:49.002Z,38.70
2018-09-30T04:28:17.130Z,38.70
2018-09-30T04:30:51.104Z,39.30
2018-09-30T04:33:19.397Z,38.70
2018-09-30T04:35:47.470Z,38.80
2018-09-30T04:38:15.733Z,38.70
2018-09-30T04:40:43.845Z,38.70
2018-09-30T04:43:11.997Z,38.70
2018-09-30T04:45:40.142Z,38.70
2018-09-30T04:48:08.266Z,38.70
2018-09-30T04:50:36.386Z,38.70
2018-09-30T04:53:04.510Z,39.40
2018-09-30T04:55:32.734Z,38.70
2018-09-30T04:58:00.854Z,38.70
2018-09-30T05:00:29.006Z,38.70
2018-09-30T05:02:57.135Z,38.70
2018-09-30T05:05:25.434Z,38.70
2018-09-30T05:07:53.691Z,38.70
2018-09-30T05:10:21.816Z,38.60
2018-09-30T05:12:49.937Z,38.70
2018-09-30T05:15:18.189Z,38.70
2018-09-30T05:17:46.318Z,38.60
2018-09-30T05:20:14.430Z,38.70
2018-09-30T05:22:42.566Z,38.70
2018-09-30T05:25:10.718Z,38.70
2018-09-30T05:27:38.958Z,38.60
2018-09-30T05:30:07.103Z,38.60
2018-09-30T05:32:35.239Z,38.60
2018-09-30T05:35:03.377Z,38.60
2018-09-30T05:37:31.507Z,38.60
2018-09-30T05:39:59.719Z,38.60
2018-09-30T05:42:27.939Z,38.60
2018-09-30T05:44:56.027Z,38.60
2018-09-30T05:47:24.131Z,38.60
2018-09-30T05:49:52.317Z,38.60
2018-09-30T05:52:20.436Z,38.60
2018-09-30T05:54:48.593Z,38.60
2018-09-30T05:57:16.722Z,39.20
2018-09-30T05:59:44.893Z,38.50
2018-09-30T06:02:13.007Z,38.50
2018-09-30T06:04:41.194Z,38.50
2018-09-30T06:07:09.416Z,38.50
2018-09-30T06:09:37.546Z,38.40
2018-09-30T06:12:05.681Z,38.50
2018-09-30T06:14:33.991Z,38.50
2018-09-30T06:17:02.135Z,38.50
2018-09-30T06:19:30.327Z,38.50
2018-09-30T06:21:58.456Z,38.50
2018-09-30T06:24:26.635Z,38.50
2018-09-30T06:26:54.770Z,38.50
2018-09-30T06:29:23.162Z,38.50
2018-09-30T06:31:51.277Z,38.50
2018-09-30T06:34:19.434Z,38.60
2018-09-30T06:36:47.866Z,38.60
2018-09-30T06:39:16.034Z,38.60
2018-09-30T06:41:44.218Z,38.60
2018-09-30T06:44:12.338Z,38.50
2018-09-30T06:46:40.570Z,38.50
2018-09-30T06:49:09.365Z,38.50
2018-09-30T06:51:37.457Z,38.50
2018-09-30T06:54:05.613Z,38.50
2018-09-30T06:56:33.715Z,38.40
2018-09-30T06:59:01.906Z,38.50
2018-09-30T07:01:30.010Z,38.50
2018-09-30T07:03:58.110Z,39.00
2018-09-30T07:06:26.365Z,38.50
2018-09-30T07:08:54.469Z,38.50
2018-09-30T07:11:22.607Z,38.40
2018-09-30T07:13:50.843Z,38.40
2018-09-30T07:16:18.969Z,38.40
2018-09-30T07:18:47.071Z,38.30
2018-09-30T07:21:15.204Z,38.30
2018-09-30T07:23:43.317Z,38.30
2018-09-30T07:26:11.474Z,38.30
2018-09-30T07:28:39.586Z,38.30
2018-09-30T07:31:08.158Z,38.30
2018-09-30T07:33:36.361Z,38.30
2018-09-30T07:36:04.478Z,38.30
2018-09-30T07:38:32.630Z,38.30
2018-09-30T07:41:01.420Z,38.20
2018-09-30T07:43:29.641Z,38.20
2018-09-30T07:45:57.784Z,38.10
2018-09-30T07:48:25.894Z,38.10
2018-09-30T07:50:54.102Z,38.10
2018-09-30T07:53:22.372Z,38.20
2018-09-30T07:55:50.524Z,38.20
2018-09-30T07:58:18.654Z,38.20
2018-09-30T08:00:46.830Z,38.20
2018-09-30T08:03:14.946Z,38.20
2018-09-30T08:05:43.101Z,38.20
2018-09-30T08:08:11.333Z,38.30
2018-09-30T08:10:39.497Z,38.10
2018-09-30T08:13:07.758Z,38.10
2018-09-30T08:15:35.917Z,38.00
2018-09-30T08:18:04.152Z,38.00
2018-09-30T08:20:32.325Z,38.00
2018-09-30T08:23:00.471Z,38.00
2018-09-30T08:25:28.678Z,38.00
2018-09-30T08:27:56.861Z,38.00
2018-09-30T08:30:25.579Z,37.60
2018-09-30T08:32:53.702Z,37.40
2018-09-30T08:35:21.850Z,38.40
2018-09-30T08:37:55.487Z,37.60
2018-09-30T08:40:29.175Z,37.50
2018-09-30T08:42:57.326Z,38.30
2018-09-30T08:45:25.549Z,37.70
2018-09-30T08:47:53.712Z,38.40
2018-09-30T08:50:21.944Z,38.00
2018-09-30T08:52:50.267Z,38.20
2018-09-30T08:55:18.404Z,37.80
2018-09-30T08:57:46.754Z,37.20
2018-09-30T09:00:14.921Z,37.50
2018-09-30T09:02:43.063Z,37.40
2018-09-30T09:05:11.322Z,37.30
2018-09-30T09:07:39.652Z,37.20
2018-09-30T09:10:07.819Z,36.90
2018-09-30T09:12:35.977Z,36.60
2018-09-30T09:15:05.104Z,36.30
2018-09-30T09:17:33.410Z,36.20
2018-09-30T09:20:01.709Z,36.10
2018-09-30T09:22:30.123Z,35.80
2018-09-30T09:24:58.278Z,36.00
2018-09-30T09:27:26.487Z,35.70
2018-09-30T09:29:54.699Z,35.50
2018-09-30T09:32:23.014Z,35.30
2018-09-30T09:34:51.205Z,35.30
2018-09-30T09:37:19.351Z,35.30
2018-09-30T09:39:47.721Z,36.70
2018-09-30T09:42:15.890Z,37.00
2018-09-30T09:44:44.159Z,37.70
2018-09-30T09:47:12.477Z,38.70
2018-09-30T09:49:40.623Z,38.70
2018-09-30T09:52:08.943Z,39.40
2018-09-30T09:54:37.143Z,39.40
2018-09-30T09:57:05.474Z,39.10
2018-09-30T09:59:33.646Z,39.60
2018-09-30T10:02:01.822Z,39.90
2018-09-30T10:04:30.056Z,40.00
2018-09-30T10:06:58.170Z,40.20
2018-09-30T10:09:26.362Z,40.20
2018-09-30T10:11:54.596Z,40.30
2018-09-30T10:14:22.738Z,40.50
2018-09-30T10:16:50.883Z,40.50
2018-09-30T10:19:19.099Z,40.80
2018-09-30T10:21:47.237Z,39.30
2018-09-30T10:24:15.421Z,37.90
2018-09-30T10:26:43.586Z,37.10
2018-09-30T10:29:11.736Z,36.50
2018-09-30T10:31:39.882Z,36.10
2018-09-30T10:34:08.063Z,35.60
2018-09-30T10:36:36.209Z,35.30
2018-09-30T10:39:07.065Z,35.10
2018-09-30T10:41:35.064Z,34.70
2018-09-30T10:44:03.286Z,34.50
2018-09-30T10:46:31.414Z,34.50
2018-09-30T10:48:59.536Z,34.10
2018-09-30T10:51:27.754Z,34.10
2018-09-30T10:53:55.912Z,33.90
2018-09-30T10:56:24.043Z,33.70
2018-09-30T10:58:52.198Z,33.80
2018-09-30T11:01:20.407Z,33.70
2018-09-30T11:03:48.652Z,33.80
2018-09-30T11:06:16.986Z,33.50
2018-09-30T11:08:45.197Z,33.10
2018-09-30T11:11:13.518Z,32.80
2018-09-30T11:13:41.654Z,32.90
2018-09-30T11:16:10.339Z,33.00
2018-09-30T11:18:38.394Z,33.20
2018-09-30T11:21:07.085Z,33.30
2018-09-30T11:23:35.358Z,33.00
2018-09-30T11:26:03.655Z,32.90
2018-09-30T11:28:32.139Z,33.40
2018-09-30T11:31:00.635Z,33.30
2018-09-30T11:33:28.981Z,33.10
2018-09-30T11:35:57.420Z,33.10
2018-09-30T11:41:00.195Z,33.20
2018-09-30T11:43:28.545Z,33.20
2018-09-30T11:45:56.818Z,33.20
2018-09-30T11:48:25.181Z,33.20
2018-09-30T11:50:53.430Z,33.10
2018-09-30T11:53:21.547Z,33.10
2018-09-30T11:55:49.669Z,33.10
2018-09-30T11:58:17.918Z,33.30
2018-09-30T12:00:46.075Z,33.30
2018-09-30T12:03:14.211Z,33.50
2018-09-30T12:05:42.366Z,34.20
2018-09-30T12:08:10.502Z,33.50
2018-09-30T12:10:38.618Z,33.30
2018-09-30T12:13:06.738Z,33.50
2018-09-30T12:15:34.892Z,34.60
2018-09-30T12:18:03.154Z,34.60
2018-09-30T12:20:31.430Z,34.50
2018-09-30T12:22:59.605Z,34.60
2018-09-30T12:25:27.728Z,34.70
2018-09-30T12:27:55.937Z,34.70
2018-09-30T12:30:24.087Z,35.00
2018-09-30T12:32:52.285Z,35.10
2018-09-30T12:35:20.425Z,35.30
2018-09-30T12:37:48.565Z,35.40
2018-09-30T12:40:16.713Z,35.50
2018-09-30T12:42:45.071Z,35.50
2018-09-30T12:45:13.277Z,35.50
2018-09-30T12:47:41.511Z,35.80
2018-09-30T12:50:09.645Z,36.10
2018-09-30T12:52:37.865Z,36.10
2018-09-30T12:55:06.043Z,36.30
2018-09-30T12:57:34.253Z,36.30
2018-09-30T13:00:03.522Z,36.50
2018-09-30T13:02:31.655Z,36.50
2018-09-30T13:04:59.799Z,36.70
2018-09-30T13:07:28.062Z,36.80
2018-09-30T13:09:56.304Z,36.80
2018-09-30T13:12:24.487Z,36.70
2018-09-30T13:14:52.643Z,37.00
2018-09-30T13:17:20.958Z,37.20
2018-09-30T13:19:49.082Z,37.40
2018-09-30T13:22:17.227Z,37.50
2018-09-30T13:24:45.438Z,37.40
2018-09-30T13:27:14.060Z,37.40
2018-09-30T13:29:42.236Z,37.40
2018-09-30T13:32:10.371Z,37.70
2018-09-30T13:34:38.541Z,37.70
2018-09-30T13:37:06.762Z,37.60
2018-09-30T13:39:34.936Z,37.60
2018-09-30T13:42:03.074Z,37.80
2018-09-30T13:44:31.193Z,37.80
2018-09-30T13:46:59.982Z,37.70
2018-09-30T13:49:28.119Z,37.70
2018-09-30T13:51:56.274Z,37.70
2018-09-30T13:54:24.401Z,37.70
2018-09-30T13:56:52.690Z,38.20
2018-09-30T13:59:21.291Z,37.70
2018-09-30T14:01:49.535Z,37.60
2018-09-30T14:04:17.780Z,37.60
2018-09-30T14:06:45.983Z,37.60
2018-09-30T14:09:14.095Z,37.70
2018-09-30T14:11:42.334Z,37.90
2018-09-30T14:14:10.658Z,37.80
2018-09-30T14:16:38.942Z,37.90
2018-09-30T14:19:07.265Z,38.00
2018-09-30T14:21:35.641Z,37.90
2018-09-30T14:24:03.951Z,38.10
2018-09-30T14:26:32.067Z,37.80
2018-09-30T14:29:00.384Z,37.60
2018-09-30T14:31:28.545Z,37.40
2018-09-30T14:33:57.347Z,37.70
2018-09-30T14:36:25.621Z,37.70
2018-09-30T14:38:53.729Z,38.00
2018-09-30T14:41:21.878Z,38.30
2018-09-30T14:43:50.060Z,38.60
2018-09-30T14:46:18.250Z,38.60
2018-09-30T14:48:46.406Z,38.50
2018-09-30T14:51:14.932Z,38.70
2018-09-30T14:53:43.127Z,38.60
2018-09-30T14:56:11.317Z,38.60
2018-09-30T14:58:40.109Z,38.80
2018-09-30T15:01:08.225Z,39.00
2018-09-30T15:03:36.554Z,39.10
2018-09-30T15:06:04.757Z,39.40
2018-09-30T15:08:32.935Z,39.50
2018-09-30T15:11:01.144Z,39.20
2018-09-30T15:13:29.319Z,39.30
2018-09-30T15:15:57.467Z,39.20
2018-09-30T15:18:25.604Z,39.20
2018-09-30T15:20:53.742Z,39.30
2018-09-30T15:23:21.899Z,39.30
2018-09-30T15:25:50.139Z,39.60
2018-09-30T15:28:18.316Z,40.00
2018-09-30T15:30:46.582Z,40.00
2018-09-30T15:33:14.716Z,40.00
2018-09-30T15:35:42.866Z,39.80
2018-09-30T15:38:11.034Z,39.90
2018-09-30T15:40:39.151Z,40.80
2018-09-30T15:43:07.430Z,40.40
2018-09-30T15:45:35.630Z,40.20
2018-09-30T15:48:03.826Z,40.20
2018-09-30T15:50:32.006Z,40.30
2018-09-30T15:53:00.187Z,40.40
2018-09-30T15:55:28.353Z,40.40
2018-09-30T15:57:56.653Z,40.30
2018-09-30T16:00:24.840Z,40.40
2018-09-30T16:02:53.036Z,40.30
2018-09-30T16:05:21.357Z,40.10
2018-09-30T16:07:49.511Z,40.20
2018-09-30T16:10:17.745Z,40.20
2018-09-30T16:12:45.986Z,40.80
2018-09-30T16:15:14.134Z,40.10
2018-09-30T16:17:43.258Z,40.10
2018-09-30T16:20:11.613Z,40.10
2018-09-30T16:22:39.785Z,40.20
2018-09-30T16:25:08.014Z,40.20
2018-09-30T16:27:36.144Z,39.90
2018-09-30T16:30:04.468Z,40.00
2018-09-30T16:32:32.634Z,40.00
2018-09-30T16:35:01.344Z,40.00
2018-09-30T16:37:29.502Z,39.80
2018-09-30T16:39:57.618Z,39.30
2018-09-30T16:42:25.807Z,39.20
2018-09-30T16:44:54.085Z,39.30
2018-09-30T16:47:22.328Z,39.40
2018-09-30T16:49:50.546Z,39.50
2018-09-30T16:52:18.830Z,39.50
2018-09-30T16:54:46.990Z,39.50
2018-09-30T16:57:15.233Z,39.50
2018-09-30T16:59:43.353Z,39.30
2018-09-30T17:02:11.626Z,39.20
2018-09-30T17:04:39.878Z,39.30
2018-09-30T17:07:07.998Z,39.20
2018-09-30T17:09:36.322Z,39.20
2018-09-30T17:12:04.503Z,39.20
2018-09-30T17:14:32.876Z,39.10
2018-09-30T17:17:00.992Z,39.00
2018-09-30T17:19:29.677Z,38.90
2018-09-30T17:21:57.975Z,38.90
2018-09-30T17:24:26.222Z,39.00
2018-09-30T17:26:54.428Z,38.90
2018-09-30T17:29:22.590Z,38.90
2018-09-30T17:31:50.837Z,38.90
2018-09-30T17:34:19.068Z,38.90
2018-09-30T17:36:47.322Z,38.80
2018-09-30T17:39:15.479Z,38.90
2018-09-30T17:41:43.596Z,38.90
2018-09-30T17:44:11.782Z,38.80
2018-09-30T17:46:40.131Z,39.00
2018-09-30T17:49:08.313Z,38.90
2018-09-30T17:51:36.518Z,38.80
2018-09-30T17:54:04.696Z,38.90
2018-09-30T17:56:32.866Z,38.90
2018-09-30T17:59:01.107Z,38.90
2018-09-30T18:01:29.213Z,39.00
2018-09-30T18:03:57.493Z,39.00
2018-09-30T18:06:25.638Z,39.00
2018-09-30T18:08:53.866Z,39.00
2018-09-30T18:11:22.039Z,39.00
2018-09-30T18:13:50.816Z,39.10
2018-09-30T18:16:18.971Z,39.10
2018-09-30T18:18:47.221Z,39.10
2018-09-30T18:21:15.451Z,39.10
2018-09-30T18:23:43.669Z,39.10
2018-09-30T18:26:11.798Z,39.10
2018-09-30T18:28:39.913Z,39.10
2018-09-30T18:31:08.168Z,38.60
2018-09-30T18:33:36.348Z,39.20
2018-09-30T18:36:04.510Z,40.00
2018-09-30T18:38:32.659Z,39.20
2018-09-30T18:41:00.995Z,39.30
2018-09-30T18:43:29.256Z,39.30
2018-09-30T18:45:57.447Z,39.30
2018-09-30T18:48:25.589Z,39.40
2018-09-30T18:50:53.730Z,39.10
2018-09-30T18:53:21.870Z,39.00
2018-09-30T18:55:50.151Z,38.90
2018-09-30T18:58:18.241Z,38.90
2018-09-30T19:00:46.489Z,39.00
2018-09-30T19:03:14.702Z,39.10
2018-09-30T19:05:42.817Z,39.70
2018-09-30T19:08:10.950Z,39.20
2018-09-30T19:10:39.103Z,39.20
2018-09-30T19:13:07.354Z,39.30
2018-09-30T19:15:35.562Z,39.30
2018-09-30T19:18:03.801Z,39.30
2018-09-30T19:20:32.080Z,39.40
2018-09-30T19:23:00.266Z,39.40
2018-09-30T19:25:28.400Z,39.40
2018-09-30T19:27:56.533Z,39.40
2018-09-30T19:30:24.662Z,39.50
2018-09-30T19:32:52.777Z,39.50
2018-09-30T19:35:21.307Z,39.50
2018-09-30T19:37:49.707Z,39.60
2018-09-30T19:40:17.851Z,39.60
2018-09-30T19:42:46.110Z,39.60
2018-09-30T19:45:14.361Z,39.70
2018-09-30T19:47:42.518Z,39.70
2018-09-30T19:50:11.015Z,39.70
2018-09-30T19:52:39.153Z,40.00
2018-09-30T19:55:07.271Z,39.90
2018-09-30T19:57:35.593Z,40.00
2018-09-30T20:00:03.837Z,40.00
2018-09-30T20:02:31.987Z,40.00
2018-09-30T20:05:00.119Z,40.00
2018-09-30T20:07:28.421Z,40.20
2018-09-30T20:09:56.620Z,40.10
2018-09-30T20:12:24.846Z,40.10
2018-09-30T20:14:52.982Z,40.10
2018-09-30T20:17:21.112Z,40.20
2018-09-30T20:19:49.806Z,40.20
2018-09-30T20:22:17.971Z,40.20
2018-09-30T20:24:46.161Z,40.20
2018-09-30T20:27:14.815Z,40.30
2018-09-30T20:29:43.250Z,40.20
2018-09-30T20:32:11.427Z,40.30
2018-09-30T20:34:39.590Z,40.30
2018-09-30T20:37:07.830Z,40.20
2018-09-30T20:39:36.001Z,40.20
2018-09-30T20:42:04.130Z,40.30
2018-09-30T20:44:32.327Z,40.30
2018-09-30T20:47:00.450Z,40.30
2018-09-30T20:49:28.665Z,40.40
2018-09-30T20:51:56.838Z,40.40
2018-09-30T20:54:25.167Z,40.40
2018-09-30T20:56:53.310Z,40.30
2018-09-30T20:59:21.428Z,40.50
2018-09-30T21:01:49.602Z,40.40
2018-09-30T21:04:17.777Z,40.50
2018-09-30T21:06:46.333Z,40.60
2018-09-30T21:09:18.113Z,40.60
2018-09-30T21:11:46.399Z,40.70
2018-09-30T21:14:14.521Z,40.70
2018-09-30T21:16:42.737Z,40.80
2018-09-30T21:19:10.883Z,40.90
2018-09-30T21:21:39.090Z,40.90
2018-09-30T21:24:07.221Z,40.90
2018-09-30T21:26:35.410Z,41.00
2018-09-30T21:29:03.562Z,41.10
2018-09-30T21:31:31.681Z,41.20
2018-09-30T21:33:59.842Z,41.20
2018-09-30T21:36:27.985Z,41.20
2018-09-30T21:38:56.138Z,41.30
2018-09-30T21:41:24.253Z,41.30
2018-09-30T21:43:52.410Z,41.40
2018-09-30T21:46:20.522Z,41.40
2018-09-30T21:48:48.675Z,41.50
2018-09-30T21:51:16.801Z,41.50
2018-09-30T21:53:45.013Z,41.60
2018-09-30T21:56:13.141Z,41.60
2018-09-30T21:58:41.298Z,41.60
2018-09-30T22:01:09.522Z,41.60
2018-09-30T22:03:37.632Z,41.60
2018-09-30T22:06:05.786Z,41.70
2018-09-30T22:08:33.936Z,41.70
2018-09-30T22:11:02.078Z,41.60
2018-09-30T22:13:30.205Z,41.70
2018-09-30T22:15:58.394Z,41.70
2018-09-30T22:18:26.570Z,41.70
2018-09-30T22:20:54.700Z,41.80
2018-09-30T22:23:22.811Z,41.70
2018-09-30T22:25:50.952Z,41.80
2018-09-30T22:28:19.087Z,41.80
2018-09-30T22:30:47.233Z,41.80
2018-09-30T22:33:15.373Z,41.80
2018-09-30T22:35:43.502Z,41.70
2018-09-30T22:38:11.676Z,42.40
2018-09-30T22:40:39.830Z,41.80
2018-09-30T22:43:07.930Z,41.80
2018-09-30T22:45:36.082Z,41.70
2018-09-30T22:48:04.198Z,41.70
2018-09-30T22:50:32.426Z,41.80
2018-09-30T22:53:00.725Z,42.00
2018-09-30T22:55:28.939Z,41.70
2018-09-30T22:57:57.080Z,41.70
2018-09-30T23:00:25.300Z,41.70
2018-09-30T23:02:53.477Z,41.70
2018-09-30T23:05:21.627Z,41.70
2018-09-30T23:07:49.754Z,41.70
2018-09-30T23:10:17.890Z,41.80
2018-09-30T23:12:46.107Z,41.70
2018-09-30T23:15:14.687Z,41.70
2018-09-30T23:17:42.941Z,41.70
2018-09-30T23:20:15.057Z,42.40
2018-09-30T23:22:43.269Z,41.70
2018-09-30T23:25:11.531Z,42.40
2018-09-30T23:27:39.654Z,41.70
2018-09-30T23:30:07.922Z,41.70
2018-09-30T23:32:36.097Z,41.70
2018-09-30T23:35:04.298Z,41.70
2018-09-30T23:37:32.532Z,41.70
2018-09-30T23:40:00.754Z,41.70
2018-09-30T23:42:28.940Z,41.70
2018-09-30T23:44:57.058Z,41.70
2018-09-30T23:47:25.437Z,41.70
2018-09-30T23:49:53.549Z,41.70
2018-09-30T23:52:21.697Z,41.80
2018-09-30T23:54:50.082Z,41.80
2018-09-30T23:57:18.266Z,41.80
2018-09-30T23:59:46.513Z,41.80
